createdAt,value
2022-09-03T00:02:15.835Z,1.45
2022-09-03T00:05:05.663Z,1.50
2022-09-03T00:07:38.212Z,1.70
2022-09-03T00:10:12.130Z,1.33
2022-09-03T00:12:46.217Z,1.33
2022-09-03T00:15:17.767Z,1.80
2022-09-03T00:17:59.239Z,1.50
2022-09-03T00:20:33.192Z,1.60
2022-09-03T00:23:08.896Z,1.45
2022-09-03T00:25:50.926Z,1.73
2022-09-03T00:28:24.502Z,1.63
2022-09-03T00:31:00.040Z,1.58
2022-09-03T00:33:31.240Z,1.63
2022-09-03T00:36:12.513Z,1.55
2022-09-03T00:38:40.385Z,1.80
2022-09-03T00:41:26.144Z,1.70
2022-09-03T00:44:14.886Z,1.65
2022-09-03T00:46:53.236Z,1.50
2022-09-03T00:49:26.213Z,1.40
2022-09-03T00:52:23.179Z,1.45
2022-09-03T00:55:16.983Z,1.30
2022-09-03T00:57:53.406Z,1.20
2022-09-03T01:00:21.289Z,1.67
2022-09-03T01:03:08.475Z,1.23
2022-09-03T01:06:11.505Z,1.48
2022-09-03T01:08:57.855Z,1.92
2022-09-03T01:11:47.684Z,1.52
2022-09-03T01:14:32.932Z,1.50
2022-09-03T01:17:22.809Z,1.50
2022-09-03T01:19:56.079Z,1.10
2022-09-03T01:22:24.823Z,1.73
2022-09-03T01:24:59.103Z,1.73
2022-09-03T01:28:02.223Z,1.70
2022-09-03T01:30:33.437Z,1.38
2022-09-03T01:33:06.282Z,1.40
2022-09-03T01:36:11.585Z,1.63
2022-09-03T01:41:39.777Z,1.42
2022-09-03T01:44:25.313Z,1.50
2022-09-03T01:47:08.972Z,1.40
2022-09-03T01:49:47.559Z,1.60
2022-09-03T01:52:26.114Z,1.58
2022-09-03T01:55:12.010Z,1.40
2022-09-03T01:57:57.058Z,1.50
2022-09-03T02:00:26.371Z,1.42
2022-09-03T02:02:54.103Z,1.80
2022-09-03T02:05:27.979Z,1.42
2022-09-03T02:08:02.180Z,1.73
2022-09-03T02:13:18.668Z,1.50
2022-09-03T02:15:48.770Z,1.48
2022-09-03T02:18:24.428Z,1.38
2022-09-03T02:20:53.734Z,1.70
2022-09-03T02:23:24.653Z,1.80
2022-09-03T02:26:01.456Z,1.40
2022-09-03T02:28:30.637Z,1.70
2022-09-03T02:30:58.104Z,1.50
2022-09-03T02:33:25.717Z,1.70
2022-09-03T02:35:54.034Z,1.75
2022-09-03T02:38:26.042Z,1.55
2022-09-03T02:40:56.809Z,1.70
2022-09-03T02:44:06.223Z,1.42
2022-09-03T02:46:50.832Z,1.55
2022-09-03T02:51:45.319Z,1.55
2022-09-03T02:54:16.742Z,1.50
2022-09-03T02:56:48.530Z,1.60
2022-09-03T02:59:18.084Z,1.70
2022-09-03T03:01:46.554Z,1.45
2022-09-03T03:04:14.400Z,1.63
2022-09-03T03:06:41.430Z,1.70
2022-09-03T03:09:09.053Z,1.77
2022-09-03T03:11:37.157Z,1.40
2022-09-03T03:14:04.456Z,1.70
2022-09-03T03:16:31.619Z,1.58
2022-09-03T03:18:58.977Z,1.42
2022-09-03T03:21:26.121Z,1.45
2022-09-03T03:23:53.882Z,1.50
2022-09-03T03:26:23.004Z,1.23
2022-09-03T03:28:51.050Z,1.65
2022-09-03T03:31:21.311Z,1.50
2022-09-03T03:33:53.549Z,1.67
2022-09-03T03:36:23.014Z,1.67
2022-09-03T03:38:50.098Z,1.52
2022-09-03T03:41:19.542Z,1.58
2022-09-03T03:43:46.590Z,1.70
2022-09-03T03:46:15.401Z,1.40
2022-09-03T03:48:42.588Z,1.40
2022-09-03T03:51:11.037Z,1.40
2022-09-03T03:53:38.987Z,1.48
2022-09-03T03:56:09.920Z,1.50
2022-09-03T03:58:37.723Z,1.85
2022-09-03T04:01:10.608Z,1.45
2022-09-03T04:03:38.142Z,1.45
2022-09-03T04:06:05.983Z,1.30
2022-09-03T04:08:38.286Z,1.60
2022-09-03T04:11:08.401Z,1.50
2022-09-03T04:13:38.387Z,1.50
2022-09-03T04:16:06.535Z,1.42
2022-09-03T04:18:35.116Z,1.70
2022-09-03T04:21:14.087Z,1.70
2022-09-03T04:23:43.834Z,1.83
2022-09-03T04:26:13.416Z,1.85
2022-09-03T04:28:42.306Z,1.45
2022-09-03T04:31:12.477Z,1.67
2022-09-03T04:33:39.840Z,1.60
2022-09-03T04:36:21.629Z,1.60
2022-09-03T04:38:50.826Z,1.48
2022-09-03T04:41:20.585Z,1.40
2022-09-03T04:43:51.345Z,1.52
2022-09-03T04:46:22.244Z,1.50
2022-09-03T04:48:54.172Z,1.75
2022-09-03T04:51:24.500Z,1.40
2022-09-03T04:54:01.045Z,1.60
2022-09-03T04:56:33.617Z,1.58
2022-09-03T04:59:06.093Z,1.63
2022-09-03T05:01:35.327Z,1.30
2022-09-03T05:04:03.289Z,1.50
2022-09-03T05:06:31.666Z,1.40
2022-09-03T05:09:00.496Z,1.45
2022-09-03T05:11:29.046Z,1.95
2022-09-03T05:13:58.365Z,1.40
2022-09-03T05:16:27.071Z,1.60
2022-09-03T05:18:56.188Z,1.58
2022-09-03T05:21:24.062Z,1.65
2022-09-03T05:23:52.990Z,1.38
2022-09-03T05:26:26.025Z,1.60
2022-09-03T05:28:58.099Z,1.63
2022-09-03T05:31:28.323Z,1.60
2022-09-03T05:34:00.634Z,1.58
2022-09-03T05:36:37.269Z,1.50
2022-09-03T05:39:05.732Z,1.30
2022-09-03T05:41:34.382Z,1.40
2022-09-03T05:44:01.715Z,1.55
2022-09-03T05:46:34.557Z,1.52
2022-09-03T05:49:03.034Z,1.70
2022-09-03T05:51:31.562Z,1.70
2022-09-03T05:53:59.495Z,1.85
2022-09-03T05:56:29.064Z,1.40
2022-09-03T05:59:01.951Z,1.90
2022-09-03T06:01:34.558Z,2.05
2022-09-03T06:04:07.162Z,1.67
2022-09-03T06:06:36.310Z,1.63
2022-09-03T06:09:06.517Z,1.67
2022-09-03T06:11:35.995Z,1.70
2022-09-03T06:14:06.069Z,1.50
2022-09-03T06:16:36.176Z,1.40
2022-09-03T06:19:06.273Z,1.58
2022-09-03T06:21:33.526Z,1.70
2022-09-03T06:24:00.887Z,1.55
2022-09-03T06:26:30.188Z,1.40
2022-09-03T06:28:58.094Z,1.52
2022-09-03T06:31:25.967Z,1.33
2022-09-03T06:33:54.841Z,1.60
2022-09-03T06:36:24.493Z,1.58
2022-09-03T06:38:56.837Z,1.40
2022-09-03T06:41:27.008Z,1.40
2022-09-03T06:43:59.683Z,1.73
2022-09-03T06:46:26.963Z,1.40
2022-09-03T06:48:55.155Z,1.92
2022-09-03T06:51:24.921Z,1.50
2022-09-03T06:53:54.829Z,1.60
2022-09-03T06:56:26.584Z,1.92
2022-09-03T06:59:06.190Z,1.60
2022-09-03T07:01:34.748Z,1.30
2022-09-03T07:04:05.799Z,1.58
2022-09-03T07:06:39.132Z,1.33
2022-09-03T07:09:10.559Z,1.53
2022-09-03T07:11:39.691Z,1.63
2022-09-03T07:14:06.778Z,1.33
2022-09-03T07:16:36.759Z,1.70
2022-09-03T07:19:05.210Z,1.80
2022-09-03T07:21:34.225Z,1.50
2022-09-03T07:24:02.589Z,1.60
2022-09-03T07:26:33.517Z,1.30
2022-09-03T07:29:01.490Z,1.38
2022-09-03T07:31:34.932Z,1.40
2022-09-03T07:34:10.077Z,1.50
2022-09-03T07:36:43.198Z,1.65
2022-09-03T07:39:12.419Z,1.58
2022-09-03T07:41:43.405Z,1.60
2022-09-03T07:44:10.843Z,1.75
2022-09-03T07:46:40.263Z,1.40
2022-09-03T07:49:08.234Z,1.52
2022-09-03T07:51:38.885Z,1.55
2022-09-03T07:54:11.409Z,1.42
2022-09-03T07:56:41.262Z,1.52
2022-09-03T07:59:09.425Z,1.70
2022-09-03T08:01:38.344Z,1.75
2022-09-03T08:04:09.377Z,1.58
2022-09-03T08:06:38.674Z,1.70
2022-09-03T08:09:07.842Z,1.80
2022-09-03T08:11:38.893Z,1.50
2022-09-03T08:14:08.058Z,1.65
2022-09-03T08:16:40.213Z,1.40
2022-09-03T08:19:07.947Z,1.70
2022-09-03T08:21:35.502Z,1.33
2022-09-03T08:24:03.123Z,1.80
2022-09-03T08:26:35.222Z,1.80
2022-09-03T08:29:03.177Z,1.30
2022-09-03T08:31:31.151Z,1.67
2022-09-03T08:33:59.842Z,1.65
2022-09-03T08:36:30.286Z,1.73
2022-09-03T08:38:59.570Z,1.50
2022-09-03T08:41:42.722Z,1.88
2022-09-03T08:44:28.153Z,1.50
2022-09-03T08:47:23.306Z,1.60
2022-09-03T08:50:02.640Z,1.70
2022-09-03T08:52:49.177Z,1.77
2022-09-03T08:55:25.562Z,1.90
2022-09-03T08:58:27.846Z,1.80
2022-09-03T09:01:01.778Z,1.58
2022-09-03T09:03:42.755Z,1.80
2022-09-03T09:06:24.110Z,1.65
2022-09-03T09:09:01.095Z,1.48
2022-09-03T09:11:43.251Z,1.48
2022-09-03T09:14:25.579Z,1.73
2022-09-03T09:17:17.426Z,1.75
2022-09-03T09:19:44.743Z,1.60
2022-09-03T09:22:30.471Z,1.50
2022-09-03T09:25:02.546Z,1.85
2022-09-03T09:27:30.571Z,2.03
2022-09-03T09:30:02.192Z,2.13
2022-09-03T09:32:32.188Z,2.03
2022-09-03T09:35:00.228Z,1.58
2022-09-03T09:37:27.673Z,2.13
2022-09-03T09:40:01.500Z,1.83
2022-09-03T09:42:31.242Z,2.10
2022-09-03T09:45:10.316Z,2.25
2022-09-03T09:47:40.961Z,2.00
2022-09-03T09:50:26.156Z,2.03
2022-09-03T09:53:14.508Z,2.03
2022-09-03T09:55:53.789Z,1.70
2022-09-03T09:58:26.132Z,2.00
2022-09-03T10:01:00.357Z,1.92
2022-09-03T10:06:32.718Z,1.67
2022-09-03T10:09:12.513Z,1.92
2022-09-03T10:11:44.305Z,2.20
2022-09-03T10:14:23.205Z,1.90
2022-09-03T10:17:00.821Z,1.83
2022-09-03T10:20:13.585Z,1.92
2022-09-03T10:22:56.342Z,2.00
2022-09-03T10:25:30.671Z,2.10
2022-09-03T10:28:00.543Z,1.90
2022-09-03T10:40:34.995Z,2.00
2022-09-03T10:43:11.245Z,2.10
2022-09-03T10:46:10.120Z,2.00
2022-09-03T10:48:53.953Z,2.08
2022-09-03T10:51:28.061Z,2.10
2022-09-03T10:54:17.431Z,2.05
2022-09-03T10:56:57.981Z,2.10
2022-09-03T10:59:48.692Z,2.42
2022-09-03T11:02:34.973Z,2.10
2022-09-03T11:05:17.056Z,2.22
2022-09-03T11:07:56.227Z,2.30
2022-09-03T11:10:30.744Z,2.25
2022-09-03T11:13:04.592Z,2.50
2022-09-03T11:15:35.405Z,2.42
2022-09-03T11:18:35.198Z,2.10
2022-09-03T11:21:14.414Z,2.50
2022-09-03T11:23:47.488Z,2.28
2022-09-03T11:26:22.095Z,2.13
2022-09-03T11:29:16.497Z,2.08
2022-09-03T11:32:02.640Z,2.35
2022-09-03T11:37:24.526Z,2.30
2022-09-03T11:40:05.191Z,2.10
2022-09-03T11:42:33.092Z,2.55
2022-09-03T11:45:20.476Z,2.40
2022-09-03T11:47:47.892Z,2.20
2022-09-03T11:50:23.380Z,2.53
2022-09-03T11:52:57.014Z,2.97
2022-09-03T11:55:38.364Z,2.55
2022-09-03T11:58:27.382Z,2.60
2022-09-03T12:05:04.386Z,2.30
2022-09-03T12:07:59.797Z,2.45
2022-09-03T12:10:32.581Z,2.40
2022-09-03T12:13:14.126Z,2.63
2022-09-03T12:15:47.518Z,2.50
2022-09-03T12:18:27.156Z,2.80
2022-09-03T12:20:55.786Z,2.22
2022-09-03T12:23:35.018Z,2.60
2022-09-03T12:26:28.508Z,2.75
2022-09-03T12:28:57.817Z,2.60
2022-09-03T12:31:33.183Z,2.63
2022-09-03T12:34:02.865Z,2.85
2022-09-03T12:36:54.612Z,2.60
2022-09-03T12:42:20.439Z,2.80
2022-09-03T12:44:47.548Z,3.03
2022-09-03T12:47:37.410Z,2.85
2022-09-03T12:50:20.060Z,2.80
2022-09-03T12:53:01.938Z,3.00
2022-09-03T12:55:57.330Z,2.83
2022-09-03T12:58:33.841Z,3.10
2022-09-03T13:01:17.892Z,2.70
2022-09-03T13:04:06.945Z,3.22
2022-09-03T13:06:57.003Z,3.10
2022-09-03T13:09:27.085Z,3.00
2022-09-03T13:11:55.696Z,3.10
2022-09-03T13:14:22.963Z,2.85
2022-09-03T13:17:22.149Z,3.10
2022-09-03T13:20:20.982Z,3.00
2022-09-03T13:23:31.360Z,3.42
2022-09-03T13:26:38.236Z,2.95
2022-09-03T13:29:25.419Z,3.20
2022-09-03T13:32:27.418Z,3.15
2022-09-03T13:35:30.593Z,2.65
2022-09-03T13:38:36.926Z,3.45
2022-09-03T13:41:36.506Z,3.55
2022-09-03T13:44:18.604Z,3.10
2022-09-03T13:47:09.680Z,2.97
2022-09-03T13:50:10.967Z,3.10
2022-09-03T13:52:58.032Z,3.25
2022-09-03T13:55:50.562Z,2.80
2022-09-03T13:58:29.413Z,3.30
2022-09-03T14:01:00.223Z,3.50
2022-09-03T14:03:35.956Z,3.30
2022-09-03T14:06:28.759Z,3.33
2022-09-03T14:09:34.407Z,3.42
2022-09-03T14:12:25.608Z,3.38
2022-09-03T14:15:02.915Z,2.97
2022-09-03T14:18:07.623Z,3.13
2022-09-03T14:20:46.102Z,2.70
2022-09-03T14:23:35.823Z,2.80
2022-09-03T14:26:07.096Z,2.88
2022-09-03T14:28:37.477Z,3.00
2022-09-03T14:31:10.439Z,2.70
2022-09-03T14:34:00.894Z,3.20
2022-09-03T14:36:56.106Z,3.30
2022-09-03T14:39:52.281Z,3.10
2022-09-03T14:42:48.002Z,3.05
2022-09-03T14:45:52.907Z,2.95
2022-09-03T14:48:51.531Z,3.20
2022-09-03T14:51:39.924Z,3.33
2022-09-03T14:54:29.076Z,2.72
2022-09-03T14:57:22.606Z,3.13
2022-09-03T15:00:22.438Z,3.10
2022-09-03T15:03:44.232Z,3.00
2022-09-03T15:06:47.732Z,2.97
2022-09-03T15:09:57.542Z,3.05
2022-09-03T15:12:49.861Z,3.08
2022-09-03T15:15:24.895Z,3.20
2022-09-03T15:18:13.367Z,2.83
2022-09-03T15:20:51.058Z,2.72
2022-09-03T15:23:28.242Z,2.42
2022-09-03T15:26:16.431Z,2.78
2022-09-03T15:29:02.173Z,2.50
2022-09-03T15:31:39.363Z,2.30
2022-09-03T15:34:27.334Z,2.20
2022-09-03T15:37:06.605Z,2.22
2022-09-03T15:39:37.505Z,2.30
2022-09-03T15:42:16.071Z,2.08
2022-09-03T15:44:55.844Z,2.30
2022-09-03T15:47:35.272Z,2.40
2022-09-03T15:50:37.727Z,2.10
2022-09-03T15:53:46.163Z,2.10
2022-09-03T15:56:21.219Z,2.00
2022-09-03T16:01:54.741Z,2.20
2022-09-03T16:04:43.408Z,1.90
2022-09-03T16:07:13.939Z,1.92
2022-09-03T16:10:24.768Z,2.10
2022-09-03T16:15:40.595Z,1.98
2022-09-03T16:18:33.429Z,1.90
2022-09-03T16:21:06.117Z,1.80
2022-09-03T16:23:59.176Z,1.83
2022-09-03T16:26:50.435Z,2.05
2022-09-03T16:29:26.202Z,1.70
2022-09-03T16:32:11.697Z,1.70
2022-09-03T16:35:13.975Z,2.08
2022-09-03T16:37:59.961Z,1.88
2022-09-03T16:40:41.638Z,2.13
2022-09-03T16:43:45.349Z,2.28
2022-09-03T16:46:41.657Z,2.15
2022-09-03T16:49:39.475Z,2.20
2022-09-03T16:52:38.552Z,2.50
2022-09-03T16:55:27.833Z,1.90
2022-09-03T16:58:10.177Z,2.00
2022-09-03T17:01:22.371Z,2.50
2022-09-03T17:04:21.689Z,1.88
2022-09-03T17:06:53.856Z,1.50
2022-09-03T17:09:56.203Z,1.55
2022-09-03T17:12:29.117Z,1.60
2022-09-03T17:15:13.857Z,1.70
2022-09-03T17:17:51.244Z,1.50
2022-09-03T17:20:37.410Z,1.58
2022-09-03T17:23:09.681Z,1.50
2022-09-03T17:25:38.099Z,1.10
2022-09-03T17:28:43.002Z,1.40
2022-09-03T17:31:24.318Z,1.20
2022-09-03T17:34:00.177Z,1.40
2022-09-03T17:36:32.428Z,1.35
2022-09-03T17:38:59.453Z,1.40
2022-09-03T17:41:41.012Z,1.25
2022-09-03T17:44:20.969Z,1.40
2022-09-03T17:47:24.829Z,1.55
2022-09-03T17:50:07.666Z,1.20
2022-09-03T17:52:49.846Z,1.83
2022-09-03T17:55:22.825Z,1.70
2022-09-03T17:58:18.058Z,1.60
2022-09-03T18:00:59.079Z,1.90
2022-09-03T18:03:33.382Z,1.80
2022-09-03T18:06:22.529Z,1.70
2022-09-03T18:09:03.531Z,1.50
2022-09-03T18:11:40.996Z,2.00
2022-09-03T18:14:31.846Z,1.83
2022-09-03T18:17:16.967Z,1.90
2022-09-03T18:20:13.558Z,2.13
2022-09-03T18:23:17.427Z,2.08
2022-09-03T18:26:06.962Z,1.88
2022-09-03T18:29:05.493Z,2.47
2022-09-03T18:31:50.838Z,2.40
2022-09-03T18:34:40.214Z,2.42
2022-09-03T18:37:27.352Z,2.40
2022-09-03T18:40:12.890Z,2.50
2022-09-03T18:43:34.523Z,2.20
2022-09-03T18:50:31.649Z,2.60
2022-09-03T18:53:47.014Z,2.60
2022-09-03T18:56:35.597Z,2.70
2022-09-03T18:59:33.246Z,2.60
2022-09-03T19:02:29.248Z,2.85
2022-09-03T19:05:30.469Z,3.05
2022-09-03T19:08:22.106Z,2.92
2022-09-03T19:11:10.436Z,2.67
2022-09-03T19:13:59.036Z,2.90
2022-09-03T19:17:02.943Z,2.63
2022-09-03T19:19:54.605Z,2.60
2022-09-03T19:22:53.189Z,2.67
2022-09-03T19:25:39.946Z,2.42
2022-09-03T19:28:34.538Z,2.47
2022-09-03T19:31:30.389Z,2.40
2022-09-03T19:34:42.521Z,2.50
2022-09-03T19:37:31.304Z,2.65
2022-09-03T19:40:22.856Z,2.30
2022-09-03T19:43:17.988Z,2.80
2022-09-03T19:46:24.366Z,2.53
2022-09-03T19:49:25.516Z,2.80
2022-09-03T19:52:20.651Z,3.17
2022-09-03T19:55:11.504Z,2.92
2022-09-03T19:57:59.875Z,2.45
2022-09-03T20:00:47.866Z,2.95
2022-09-03T20:03:33.655Z,2.95
2022-09-03T20:06:23.875Z,2.80
2022-09-03T20:09:10.762Z,3.00
2022-09-03T20:11:40.549Z,2.90
2022-09-03T20:14:17.375Z,3.10
2022-09-03T20:17:14.745Z,2.85
2022-09-03T20:20:12.003Z,2.97
2022-09-03T20:22:54.367Z,2.90
2022-09-03T20:25:33.257Z,3.17
2022-09-03T20:28:15.128Z,3.30
2022-09-03T20:31:26.400Z,3.15
2022-09-03T20:34:11.433Z,3.05
2022-09-03T20:36:55.453Z,3.10
2022-09-03T20:39:34.395Z,3.60
2022-09-03T20:42:22.231Z,3.63
2022-09-03T20:45:23.299Z,3.55
2022-09-03T20:48:29.145Z,3.40
2022-09-03T20:51:06.058Z,3.40
2022-09-03T20:54:09.673Z,3.97
2022-09-03T20:56:36.703Z,3.38
2022-09-03T20:59:29.014Z,3.70
2022-09-03T21:02:21.258Z,3.55
2022-09-03T21:05:17.245Z,3.92
2022-09-03T21:07:53.178Z,4.20
2022-09-03T21:10:43.479Z,4.18
2022-09-03T21:14:10.153Z,3.75
2022-09-03T21:17:18.747Z,3.85
2022-09-03T21:20:01.436Z,3.72
2022-09-03T21:22:33.943Z,3.83
2022-09-03T21:25:09.739Z,3.47
2022-09-03T21:27:49.081Z,3.60
2022-09-03T21:30:20.388Z,3.80
2022-09-03T21:33:02.563Z,3.60
2022-09-03T21:35:45.474Z,3.63
2022-09-03T21:38:25.154Z,3.90
2022-09-03T21:41:38.010Z,3.47
2022-09-03T21:44:16.549Z,4.32
2022-09-03T21:47:01.911Z,4.13
2022-09-03T21:49:47.773Z,3.85
2022-09-03T21:52:21.805Z,4.20
2022-09-03T21:54:49.031Z,3.47
2022-09-03T21:57:22.227Z,4.05
2022-09-03T22:00:13.224Z,4.00
2022-09-03T22:02:40.941Z,4.13
2022-09-03T22:05:08.233Z,3.92
2022-09-03T22:07:38.088Z,3.63
2022-09-03T22:10:08.011Z,4.22
2022-09-03T22:12:50.425Z,4.25
2022-09-03T22:15:19.927Z,4.55
2022-09-03T22:17:57.078Z,4.70
2022-09-03T22:20:27.118Z,4.20
2022-09-03T22:23:00.676Z,4.20
2022-09-03T22:25:44.059Z,4.10
2022-09-03T22:28:38.440Z,4.10
2022-09-03T22:31:38.066Z,4.30
2022-09-03T22:34:43.919Z,4.45
2022-09-03T22:37:33.758Z,4.35
2022-09-03T22:40:16.669Z,4.50
2022-09-03T22:42:58.230Z,4.40
2022-09-03T22:45:28.239Z,4.00
2022-09-03T22:48:23.786Z,4.20
2022-09-03T22:51:00.159Z,4.47
2022-09-03T22:53:43.458Z,4.05
2022-09-03T22:56:13.146Z,4.60
2022-09-03T22:58:55.909Z,4.40
2022-09-03T23:01:45.564Z,3.97
2022-09-03T23:04:33.825Z,4.00
2022-09-03T23:07:11.714Z,4.07
2022-09-03T23:09:41.342Z,4.60
2022-09-03T23:12:20.399Z,4.32
2022-09-03T23:14:56.381Z,4.20
2022-09-03T23:22:30.765Z,4.63
2022-09-03T23:25:03.383Z,4.63
2022-09-03T23:27:37.259Z,4.30
2022-09-03T23:30:05.696Z,4.68
2022-09-03T23:32:33.742Z,4.93
2022-09-03T23:35:04.410Z,4.90
2022-09-03T23:37:46.398Z,4.60
2022-09-03T23:40:23.501Z,4.45
2022-09-03T23:42:59.847Z,4.80
2022-09-03T23:45:47.802Z,4.53
2022-09-03T23:48:23.104Z,4.53
2022-09-03T23:51:09.340Z,5.38
2022-09-03T23:54:13.587Z,4.97
2022-09-03T23:56:55.896Z,4.90
2022-09-03T23:59:41.749Z,5.10
